Time;durP1;ratioP1;P1;durP2;ratioP2;P2;SDS_P1;SDS_P2;PMS_P1;PMS_P2;Temp;Humidity;BMP_temperature;BMP_pressure;BME280_temperature;BME280_humidity;BME280_pressure;Samples;Min_cycle;Max_cycle;Signal;HPM_P1;HPM_P2
2023/08/29 00:00:24;;;;;;;;;2.00;2.00;;;;;15.72;94.71;101230.66;5096454;27;45598;-75
2023/08/29 00:02:49;;;;;;;;;3.00;3.00;;;;;15.94;94.36;101281.72;5085596;27;45396;-75
2023/08/29 00:05:14;;;;;;;;;4.00;2.00;;;;;15.96;95.32;101272.69;5087354;27;45478;-75
2023/08/29 00:07:41;;;;;;;;;3.33;2.00;;;;;15.97;92.36;101270.88;5071214;28;45459;-75
2023/08/29 00:10:07;;;;;;;;;3.67;1.67;;;;;15.81;95.98;101254.97;5080108;27;48211;-75
2023/08/29 00:12:32;;;;;;;;;3.00;3.00;;;;;15.75;93.61;101234.00;5099291;27;45372;-75
2023/08/29 00:15:03;;;;;;;;;4.33;2.67;;;;;15.86;92.67;101252.00;5091315;27;45462;-75
2023/08/29 00:17:29;;;;;;;;;3.00;3.00;;;;;15.95;91.99;101262.09;5098093;27;45587;-75
2023/08/29 00:19:54;;;;;;;;;1.67;1.67;;;;;15.96;94.60;101270.03;5089205;27;45328;-75
2023/08/29 00:22:20;;;;;;;;;2.00;2.00;;;;;15.72;94.32;101234.19;5091734;27;45342;-75
2023/08/29 00:24:46;;;;;;;;;4.00;2.00;;;;;15.96;94.88;101266.50;5075929;27;45325;-75
2023/08/29 00:27:11;;;;;;;;;1.33;1.33;;;;;15.82;94.82;101247.81;5087712;27;46106;-75
2023/08/29 00:29:36;;;;;;;;;1.33;1.33;;;;;15.73;94.04;101227.91;5090318;27;45437;-74
2023/08/29 00:32:02;;;;;;;;;2.00;2.00;;;;;15.78;93.49;101240.94;5092430;27;45246;-75
2023/08/29 00:34:27;;;;;;;;;3.33;2.33;;;;;15.94;94.17;101276.38;5092982;27;45298;-75
2023/08/29 00:36:53;;;;;;;;;2.00;1.00;;;;;15.83;94.89;101258.41;5081685;27;45402;-76
2023/08/29 00:39:18;;;;;;;;;2.00;2.00;;;;;15.84;94.83;101251.22;5082278;27;45358;-75
2023/08/29 00:41:48;;;;;;;;;1.67;1.67;;;;;15.85;96.65;101251.16;5100701;27;45675;-75
2023/08/29 00:44:13;;;;;;;;;4.00;3.00;;;;;15.76;94.35;101227.72;5096062;27;45482;-75
2023/08/29 00:46:39;;;;;;;;;3.00;2.67;;;;;15.98;95.54;101256.59;5086577;27;45379;-75
2023/08/29 00:49:05;;;;;;;;;1.33;1.33;;;;;15.86;96.05;101242.22;5085698;27;46440;-75
2023/08/29 00:51:30;;;;;;;;;2.00;2.00;;;;;15.87;95.37;101246.56;5100095;27;45292;-75
2023/08/29 00:53:56;;;;;;;;;4.67;4.33;;;;;15.88;96.42;101266.09;5088429;27;45313;-75
2023/08/29 00:56:21;;;;;;;;;2.00;2.00;;;;;15.90;95.46;101264.22;5090009;27;45257;-75
2023/08/29 00:58:46;;;;;;;;;2.67;2.00;;;;;15.89;95.95;101254.50;5095342;27;46123;-75
2023/08/29 01:01:12;;;;;;;;;2.00;2.00;;;;;15.87;97.40;101254.56;5090807;27;45335;-75
2023/08/29 01:03:39;;;;;;;;;2.67;2.67;;;;;15.83;95.04;101252.22;5095228;27;45256;-75
2023/08/29 01:06:04;;;;;;;;;4.00;3.00;;;;;15.83;97.28;101249.53;5092387;27;45443;-75
2023/08/29 01:08:30;;;;;;;;;5.00;5.00;;;;;15.58;95.62;101232.38;5089961;27;46142;-75
2023/08/29 01:11:21;;;;;;;;;5.00;4.00;;;;;15.61;94.80;101225.97;5097589;27;45378;-75
2023/08/29 01:13:49;;;;;;;;;5.67;4.00;;;;;15.75;97.73;101250.00;5094864;27;45332;-75
2023/08/29 01:16:19;;;;;;;;;4.00;4.00;;;;;15.75;97.87;101257.13;5100638;27;45381;-75
2023/08/29 01:18:46;;;;;;;;;6.67;3.67;;;;;15.73;96.72;101257.25;5096615;27;46385;-75
2023/08/29 01:21:26;;;;;;;;;7.33;3.67;;;;;15.73;99.08;101257.25;5100332;27;45334;-75
2023/08/29 01:24:06;;;;;;;;;3.00;3.00;;;;;15.72;97.97;101255.53;5088230;27;45397;-75
2023/08/29 01:26:32;;;;;;;;;4.67;4.67;;;;;15.57;97.19;101237.81;5092862;27;45287;-76
2023/08/29 01:28:59;;;;;;;;;6.00;6.00;;;;;15.73;96.93;101251.06;5079615;27;47233;-75
2023/08/29 01:31:29;;;;;;;;;2.67;1.67;;;;;15.52;97.95;101221.22;5095632;27;45556;-76
2023/08/29 01:33:56;;;;;;;;;5.67;3.67;;;;;15.52;98.98;101224.75;5079641;27;45286;-75
2023/08/29 01:36:22;;;;;;;;;3.00;2.00;;;;;15.57;98.91;101229.81;5083538;27;45512;-76
2023/08/29 01:38:47;;;;;;;;;4.00;4.00;;;;;15.56;99.01;101233.41;5089102;27;46202;-76
2023/08/29 01:41:12;;;;;;;;;5.00;4.00;;;;;15.66;100.00;101255.03;5091890;27;45292;-75
2023/08/29 01:43:38;;;;;;;;;3.33;2.00;;;;;15.48;100.00;101214.34;5077637;27;45704;-75
2023/08/29 01:46:03;;;;;;;;;2.33;2.33;;;;;15.59;100.00;101257.22;5091233;27;45346;-75
2023/08/29 01:48:30;;;;;;;;;3.67;3.67;;;;;15.54;100.00;101232.66;5091348;27;45371;-76
2023/08/29 01:50:56;;;;;;;;;4.33;3.00;;;;;15.61;100.00;101248.19;5101379;27;45449;-75
2023/08/29 01:53:21;;;;;;;;;1.67;1.67;;;;;15.45;100.00;101228.69;5097026;27;45457;-75
2023/08/29 01:55:48;;;;;;;;;4.67;3.00;;;;;15.57;100.00;101248.47;5097020;27;45423;-75
2023/08/29 01:58:15;;;;;;;;;4.67;2.00;;;;;15.36;100.00;101220.41;5080364;27;46219;-75
2023/08/29 02:00:41;;;;;;;;;4.33;4.33;;;;;15.53;100.00;101254.94;5075206;27;45312;-75
2023/08/29 02:03:07;;;;;;;;;2.67;2.67;;;;;15.49;100.00;101253.41;5088135;27;45502;-75
2023/08/29 02:05:32;;;;;;;;;4.33;4.33;;;;;15.35;100.00;101235.53;5096775;27;45292;-75
2023/08/29 02:07:57;;;;;;;;;2.33;2.00;;;;;15.29;100.00;101232.38;5088766;27;45387;-75
2023/08/29 02:10:24;;;;;;;;;3.33;3.00;;;;;15.38;100.00;101246.00;5096619;27;45656;-76
2023/08/29 02:12:49;;;;;;;;;3.67;2.67;;;;;15.30;100.00;101234.97;5083950;27;45403;-75
2023/08/29 02:15:15;;;;;;;;;4.67;4.67;;;;;15.34;100.00;101254.28;5097461;27;45359;-76
2023/08/29 02:17:40;;;;;;;;;6.67;6.00;;;;;15.17;100.00;101231.31;5095035;27;45892;-75
2023/08/29 02:20:08;;;;;;;;;4.33;4.33;;;;;15.24;100.00;101248.66;5074278;27;45493;-76
2023/08/29 02:22:34;;;;;;;;;6.33;6.33;;;;;15.10;100.00;101235.28;5094648;27;45362;-75
2023/08/29 02:25:02;;;;;;;;;5.00;4.33;;;;;14.96;100.00;101217.44;5084834;27;45548;-75
2023/08/29 02:27:27;;;;;;;;;5.67;5.67;;;;;15.20;100.00;101265.78;5076321;27;47128;-76
2023/08/29 02:29:53;;;;;;;;;5.00;3.00;;;;;14.96;100.00;101227.22;5078816;28;45606;-75
2023/08/29 02:32:20;;;;;;;;;5.67;5.00;;;;;15.08;100.00;101237.19;5095547;27;45292;-75
2023/08/29 02:34:45;;;;;;;;;2.00;1.00;;;;;15.21;100.00;101263.97;5086407;27;45488;-75
2023/08/29 02:37:10;;;;;;;;;3.00;3.00;;;;;15.09;100.00;101239.75;5095297;27;45411;-75
2023/08/29 02:39:36;;;;;;;;;6.33;4.00;;;;;15.26;100.00;101261.88;5089220;27;45378;-75
2023/08/29 02:42:01;;;;;;;;;5.00;5.00;;;;;15.24;100.00;101253.13;5093369;27;45415;-75
2023/08/29 02:44:26;;;;;;;;;2.67;2.67;;;;;15.31;100.00;101265.16;5089431;27;45585;-75
2023/08/29 02:46:52;;;;;;;;;4.33;4.00;;;;;15.14;100.00;101242.16;5100478;27;45318;-75
2023/08/29 02:49:17;;;;;;;;;4.33;4.33;;;;;15.27;100.00;101251.13;5098878;27;45505;-75
2023/08/29 02:51:42;;;;;;;;;5.00;5.00;;;;;15.23;100.00;101236.28;5086393;27;45520;-75
2023/08/29 02:54:08;;;;;;;;;4.00;4.00;;;;;15.28;100.00;101242.16;5091718;27;45435;-75
2023/08/29 02:56:33;;;;;;;;;4.33;4.33;;;;;15.22;100.00;101228.34;5099207;27;46225;-75
2023/08/29 02:58:58;;;;;;;;;4.00;4.00;;;;;15.42;100.00;101252.00;5092295;27;45453;-75
2023/08/29 03:01:24;;;;;;;;;5.33;5.33;;;;;15.45;100.00;101251.81;5090636;27;45390;-75
2023/08/29 03:03:49;;;;;;;;;5.00;4.33;;;;;15.39;100.00;101250.41;5083434;27;49669;-75
2023/08/29 03:06:15;;;;;;;;;4.67;4.67;;;;;15.38;100.00;101242.50;5081832;27;45436;-75
2023/08/29 03:08:40;;;;;;;;;10.33;8.67;;;;;15.40;100.00;101237.94;5083278;27;45350;-75
2023/08/29 03:11:05;;;;;;;;;7.67;5.33;;;;;15.50;100.00;101249.78;5095299;27;45641;-75
2023/08/29 03:13:32;;;;;;;;;7.33;7.33;;;;;15.39;100.00;101225.53;5082550;27;45495;-75
2023/08/29 03:15:59;;;;;;;;;9.33;8.33;;;;;15.32;100.00;101208.19;5084488;27;45529;-75
2023/08/29 03:18:27;;;;;;;;;8.67;8.33;;;;;15.52;100.00;101245.22;5069458;28;45921;-75
2023/08/29 03:20:53;;;;;;;;;8.67;7.67;;;;;15.44;100.00;101221.69;5091355;27;45486;-75
2023/08/29 03:23:18;;;;;;;;;5.00;5.00;;;;;15.38;100.00;101219.34;5102445;27;45288;-75
2023/08/29 03:25:44;;;;;;;;;6.33;6.00;;;;;15.52;100.00;101230.09;5088215;27;45281;-75
2023/08/29 03:28:09;;;;;;;;;6.00;6.00;;;;;15.56;100.00;101241.41;5093471;27;45461;-75
2023/08/29 03:30:34;;;;;;;;;6.00;5.00;;;;;15.47;100.00;101231.28;5086741;27;45403;-76
2023/08/29 03:33:00;;;;;;;;;5.67;4.67;;;;;15.53;100.00;101229.13;5086865;27;45234;-75
2023/08/29 03:35:25;;;;;;;;;6.00;4.00;;;;;15.43;100.00;101225.28;5093347;27;48412;-75
2023/08/29 03:37:50;;;;;;;;;4.00;4.00;;;;;15.42;100.00;101230.69;5087327;27;45257;-75
2023/08/29 03:40:16;;;;;;;;;5.00;3.67;;;;;15.44;100.00;101226.13;5090145;27;45304;-75
2023/08/29 03:42:41;;;;;;;;;6.33;6.33;;;;;15.48;100.00;101230.34;5093326;27;45393;-75
2023/08/29 03:45:08;;;;;;;;;5.67;4.33;;;;;15.37;100.00;101211.47;5099635;27;46297;-75
2023/08/29 03:47:34;;;;;;;;;6.00;4.33;;;;;15.43;100.00;101216.41;5098522;27;45279;-75
2023/08/29 03:50:00;;;;;;;;;4.33;4.00;;;;;15.47;100.00;101233.94;5095093;27;45861;-75
2023/08/29 03:52:26;;;;;;;;;5.00;4.00;;;;;15.39;100.00;101220.22;5103854;27;45565;-76
2023/08/29 03:54:58;;;;;;;;;6.00;4.00;;;;;15.30;100.00;101202.97;5097889;27;46486;-75
2023/08/29 03:57:24;;;;;;;;;4.00;4.00;;;;;15.11;100.00;101179.25;5091560;27;45238;-76
2023/08/29 03:59:50;;;;;;;;;5.67;5.00;;;;;15.38;100.00;101224.69;5084156;27;45382;-75
2023/08/29 04:02:15;;;;;;;;;5.67;4.00;;;;;15.23;100.00;101204.28;5095133;27;45533;-74
2023/08/29 04:04:44;;;;;;;;;6.00;4.33;;;;;15.40;100.00;101224.59;5098604;27;46117;-75
2023/08/29 04:07:12;;;;;;;;;7.67;5.33;;;;;15.23;100.00;101206.97;5090656;27;45380;-75
2023/08/29 04:09:39;;;;;;;;;4.00;4.00;;;;;15.34;100.00;101232.97;5087827;27;45343;-75
2023/08/29 04:12:07;;;;;;;;;5.33;4.00;;;;;15.16;100.00;101210.06;5081967;27;45482;-75
2023/08/29 04:14:33;;;;;;;;;7.00;5.00;;;;;15.15;100.00;101211.88;5092585;27;45276;-75
2023/08/29 04:16:58;;;;;;;;;7.00;7.00;;;;;15.08;100.00;101194.56;5094971;27;45300;-75
2023/08/29 04:19:24;;;;;;;;;4.67;4.00;;;;;15.19;100.00;101223.22;5096293;27;45392;-75
2023/08/29 04:21:49;;;;;;;;;6.33;5.33;;;;;15.16;100.00;101220.72;5097960;27;45789;-75
2023/08/29 04:24:14;;;;;;;;;4.67;4.33;;;;;14.88;100.00;101187.75;5094501;27;46561;-76
2023/08/29 04:26:40;;;;;;;;;7.00;7.00;;;;;14.94;100.00;101203.38;5100503;27;45308;-75
2023/08/29 04:29:05;;;;;;;;;6.67;6.33;;;;;14.83;100.00;101189.81;5077378;27;45548;-75
2023/08/29 04:31:30;;;;;;;;;5.33;5.33;;;;;14.89;100.00;101188.59;5093050;27;45217;-75
2023/08/29 04:33:56;;;;;;;;;12.67;7.33;;;;;14.83;100.00;101189.81;5097552;27;48182;-75
2023/08/29 04:36:21;;;;;;;;;7.33;7.33;;;;;14.76;100.00;101180.47;5093912;27;45298;-75
2023/08/29 04:38:47;;;;;;;;;7.33;6.67;;;;;14.74;100.00;101185.03;5087521;27;45342;-75
2023/08/29 04:41:13;;;;;;;;;8.00;7.00;;;;;14.86;100.00;101216.25;5094159;27;45399;-75
2023/08/29 04:43:42;;;;;;;;;7.33;7.33;;;;;14.71;100.00;101201.19;5074830;27;48316;-75
2023/08/29 04:46:07;;;;;;;;;5.00;5.00;;;;;14.65;100.00;101182.03;5073595;27;45521;-75
2023/08/29 04:48:36;;;;;;;;;9.00;7.00;;;;;14.70;100.00;101196.78;5097293;27;45389;-75
2023/08/29 04:51:02;;;;;;;;;7.67;6.67;;;;;14.66;100.00;101197.09;5105288;27;45431;-75
2023/08/29 04:53:28;;;;;;;;;6.00;5.33;;;;;14.62;100.00;101193.75;5087000;27;45356;-75
2023/08/29 04:56:02;;;;;;;;;7.00;5.67;;;;;14.67;100.00;101204.09;5088368;27;45359;-75
2023/08/29 04:58:28;;;;;;;;;8.67;7.33;;;;;14.67;100.00;101201.44;5065669;27;45400;-75
2023/08/29 05:00:53;;;;;;;;;7.67;7.67;;;;;14.75;100.00;101223.16;5077681;27;45825;-75
2023/08/29 05:03:19;;;;;;;;;8.00;8.00;;;;;14.57;100.00;101204.63;5082890;27;45493;-75
2023/08/29 05:05:47;;;;;;;;;8.33;7.33;;;;;14.60;100.00;101215.09;5094411;27;45439;-75
2023/08/29 05:08:13;;;;;;;;;6.67;6.67;;;;;14.59;100.00;101212.53;5084602;27;45485;-75
2023/08/29 05:10:40;;;;;;;;;7.33;6.33;;;;;14.46;100.00;101184.91;5095886;27;45372;-75
2023/08/29 05:13:06;;;;;;;;;6.33;6.00;;;;;14.55;100.00;101211.88;5100296;27;45303;-75
2023/08/29 05:15:32;;;;;;;;;7.00;5.33;;;;;14.59;100.00;101221.38;5096459;27;45326;-75
2023/08/29 05:17:57;;;;;;;;;7.67;7.67;;;;;14.37;100.00;101177.44;5099399;27;45319;-75
2023/08/29 05:20:22;;;;;;;;;7.33;6.00;;;;;14.55;100.00;101217.19;5090154;27;45461;-74
2023/08/29 05:22:48;;;;;;;;;7.00;7.00;;;;;14.47;100.00;101205.25;5099228;27;46208;-75
2023/08/29 05:25:13;;;;;;;;;10.33;8.33;;;;;14.51;100.00;101214.78;5099843;27;45442;-75
2023/08/29 05:27:38;;;;;;;;;9.33;9.00;;;;;14.41;100.00;101206.47;5081160;27;45491;-75
2023/08/29 05:30:05;;;;;;;;;9.00;8.33;;;;;14.34;100.00;101207.75;5092394;27;45246;-75
2023/08/29 05:32:31;;;;;;;;;10.00;8.00;;;;;14.50;100.00;101229.88;5078046;28;48588;-75
2023/08/29 05:34:56;;;;;;;;;7.00;5.67;;;;;14.44;100.00;101208.06;5078892;27;45816;-75
2023/08/29 05:37:21;;;;;;;;;9.67;7.00;;;;;14.50;100.00;101224.56;5077770;28;45659;-75
2023/08/29 05:39:47;;;;;;;;;8.67;8.67;;;;;14.35;100.00;101208.59;5077978;28;45546;-75
2023/08/29 05:42:12;;;;;;;;;13.00;9.67;;;;;14.44;100.00;101224.03;5078663;27;45388;-75
2023/08/29 05:44:38;;;;;;;;;9.33;9.33;;;;;14.29;100.00;101190.28;5078347;27;45314;-75
2023/08/29 05:47:04;;;;;;;;;9.67;9.00;;;;;14.53;100.00;101236.81;5069760;27;45543;-75
2023/08/29 05:49:29;;;;;;;;;9.33;9.33;;;;;14.44;100.00;101211.59;5068901;27;45474;-75
2023/08/29 05:51:54;;;;;;;;;8.00;6.67;;;;;14.52;100.00;101227.16;5092620;27;45390;-75
2023/08/29 05:54:19;;;;;;;;;12.33;11.33;;;;;14.46;100.00;101207.03;5083131;27;45374;-75
2023/08/29 05:56:45;;;;;;;;;11.67;11.33;;;;;14.54;100.00;101211.94;5077179;27;45272;-75
2023/08/29 05:59:10;;;;;;;;;12.00;10.67;;;;;14.47;100.00;101200.78;5072253;28;45370;-75
2023/08/29 06:01:35;;;;;;;;;11.67;10.00;;;;;14.46;100.00;101188.41;5072487;28;45293;-75
2023/08/29 06:04:04;;;;;;;;;9.00;9.00;;;;;14.67;100.00;101220.94;5067309;28;45256;-75
2023/08/29 06:06:31;;;;;;;;;10.33;10.33;;;;;14.64;100.00;101210.47;5070846;28;45366;-76
2023/08/29 06:08:57;;;;;;;;;11.33;8.33;;;;;14.73;100.00;101212.59;5088807;27;45494;-76
2023/08/29 06:11:22;;;;;;;;;9.00;9.00;;;;;14.78;100.00;101223.84;5063617;28;45406;-75
2023/08/29 06:13:47;;;;;;;;;8.33;8.33;;;;;14.72;100.00;101205.56;5069589;27;45351;-76
2023/08/29 06:16:13;;;;;;;;;9.00;7.00;;;;;14.90;100.00;101228.47;5074058;27;45504;-76
2023/08/29 06:18:38;;;;;;;;;10.33;10.00;;;;;14.96;100.00;101232.56;5066631;28;45361;-76
2023/08/29 06:21:04;;;;;;;;;15.67;12.00;;;;;14.96;100.00;101222.78;5072479;28;45470;-75
2023/08/29 06:23:30;;;;;;;;;11.00;11.00;;;;;14.95;100.00;101206.91;5070264;28;45437;-75
2023/08/29 06:25:55;;;;;;;;;8.67;8.00;;;;;14.92;100.00;101202.56;5065730;27;45424;-75
2023/08/29 06:28:21;;;;;;;;;12.67;9.67;;;;;15.11;100.00;101218.34;5068863;27;45260;-76
2023/08/29 06:30:46;;;;;;;;;11.33;10.67;;;;;15.16;100.00;101212.75;5074566;27;46299;-75
2023/08/29 06:33:11;;;;;;;;;15.00;9.33;;;;;15.22;100.00;101220.34;5091818;27;45417;-75
2023/08/29 06:35:38;;;;;;;;;12.67;11.00;;;;;15.26;100.00;101211.25;5076428;27;45346;-76
2023/08/29 06:38:03;;;;;;;;;14.33;11.67;;;;;15.15;100.00;101203.06;5081619;27;45291;-76
2023/08/29 06:40:29;;;;;;;;;10.33;9.67;;;;;15.21;100.00;101205.34;5081772;27;45449;-76
2023/08/29 06:42:54;;;;;;;;;13.33;12.33;;;;;15.45;100.00;101235.84;5072643;27;45410;-76
2023/08/29 06:45:19;;;;;;;;;11.67;8.67;;;;;15.35;100.00;101218.69;5078131;28;45445;-76
2023/08/29 06:47:45;;;;;;;;;15.00;12.67;;;;;15.43;100.00;101216.41;5080078;27;45319;-75
2023/08/29 06:50:11;;;;;;;;;13.00;11.33;;;;;15.38;100.00;101200.69;5076007;27;46049;-76
2023/08/29 06:52:37;;;;;;;;;10.33;10.33;;;;;15.57;100.00;101208.47;5072039;28;45473;-76
2023/08/29 06:55:03;;;;;;;;;12.00;12.00;;;;;15.70;100.00;101230.78;5068525;27;45340;-75
2023/08/29 06:57:28;;;;;;;;;14.00;12.67;;;;;15.71;100.00;101215.59;5074345;27;45375;-75
2023/08/29 06:59:53;;;;;;;;;14.67;12.00;;;;;15.63;100.00;101202.75;5073758;28;45516;-76
2023/08/29 07:02:19;;;;;;;;;15.33;14.00;;;;;15.83;100.00;101229.06;5063518;28;45356;-75
2023/08/29 07:04:44;;;;;;;;;13.67;12.33;;;;;15.71;100.00;101194.28;5073384;28;45485;-76
2023/08/29 07:07:09;;;;;;;;;11.00;10.33;;;;;15.88;100.00;101210.94;5076093;27;45503;-75
2023/08/29 07:09:35;;;;;;;;;10.33;10.33;;;;;15.87;100.00;101211.91;5074192;28;45389;-75
2023/08/29 07:12:00;;;;;;;;;8.67;8.67;;;;;16.04;100.00;101233.03;5077345;28;45221;-75
2023/08/29 07:14:26;;;;;;;;;12.00;12.00;;;;;15.87;100.00;101195.06;5074058;28;45422;-76
2023/08/29 07:16:51;;;;;;;;;14.67;12.67;;;;;16.03;100.00;101212.63;5066649;27;45416;-75
2023/08/29 07:19:16;;;;;;;;;14.00;10.00;;;;;16.10;100.00;101218.44;5076125;27;46477;-75
2023/08/29 07:21:42;;;;;;;;;12.33;11.00;;;;;16.19;100.00;101212.56;5066950;28;45240;-76
2023/08/29 07:24:07;;;;;;;;;13.00;10.00;;;;;16.44;100.00;101241.19;5079178;27;45354;-76
2023/08/29 07:26:33;;;;;;;;;15.33;13.00;;;;;16.50;100.00;101238.97;5070669;28;45466;-75
2023/08/29 07:28:58;;;;;;;;;20.67;13.00;;;;;16.53;100.00;101229.91;5077694;28;45315;-75
2023/08/29 07:31:23;;;;;;;;;12.00;11.00;;;;;16.68;100.00;101231.63;5078147;28;45360;-75
2023/08/29 07:33:49;;;;;;;;;9.33;9.33;;;;;16.70;100.00;101218.16;5095896;27;46538;-75
2023/08/29 07:36:15;;;;;;;;;11.33;10.33;;;;;16.78;100.00;101211.38;5093182;27;45443;-76
2023/08/29 07:38:41;;;;;;;;;10.33;9.67;;;;;16.86;100.00;101202.81;5092030;27;46163;-76
2023/08/29 07:41:06;;;;;;;;;9.33;8.00;;;;;16.77;100.00;101185.59;5083787;27;45526;-75
2023/08/29 07:43:31;;;;;;;;;14.67;13.00;;;;;17.16;100.00;101228.34;5080465;28;45410;-75
2023/08/29 07:45:58;;;;;;;;;7.00;7.00;;;;;17.27;100.00;101230.28;5075810;27;45558;-75
2023/08/29 07:48:23;;;;;;;;;11.00;11.00;;;;;17.18;100.00;101206.84;5081785;27;46864;-75
2023/08/29 07:50:49;;;;;;;;;8.33;8.33;;;;;17.27;100.00;101198.22;5082674;27;45430;-76
2023/08/29 07:53:14;;;;;;;;;10.33;9.67;;;;;17.50;99.33;101220.69;5097445;27;45659;-75
2023/08/29 07:55:43;;;;;;;;;14.00;14.00;;;;;17.57;99.83;101224.69;5091384;27;45512;-76
2023/08/29 07:58:08;;;;;;;;;12.00;8.67;;;;;17.64;100.00;101215.25;5101249;27;45542;-76
2023/08/29 08:00:34;;;;;;;;;8.67;8.67;;;;;17.74;99.25;101213.66;5099240;27;45489;-75
2023/08/29 08:03:00;;;;;;;;;9.67;9.67;;;;;17.83;97.73;101210.34;5101599;27;45246;-76
2023/08/29 08:05:26;;;;;;;;;9.00;9.00;;;;;18.05;97.74;101220.38;5090966;27;45300;-75
2023/08/29 08:07:52;;;;;;;;;12.33;10.00;;;;;18.02;99.56;101202.72;5082688;27;45996;-76
2023/08/29 08:10:18;;;;;;;;;11.00;9.33;;;;;18.19;98.07;101196.97;5079593;28;45408;-76
2023/08/29 08:12:48;;;;;;;;;13.33;10.67;;;;;18.39;96.80;101205.41;5083022;27;45477;-76
2023/08/29 08:15:13;;;;;;;;;9.00;8.00;;;;;18.58;92.13;101216.50;5090579;27;45460;-76
2023/08/29 08:17:39;;;;;;;;;9.00;8.00;;;;;18.65;91.42;101215.91;5083000;27;45291;-76
2023/08/29 08:20:07;;;;;;;;;7.67;6.67;;;;;18.87;94.98;101219.69;5069279;28;45340;-76
2023/08/29 08:22:37;;;;;;;;;9.00;8.00;;;;;18.91;95.52;101203.28;5096325;27;45415;-76
2023/08/29 08:25:02;;;;;;;;;5.67;4.67;;;;;19.05;89.94;101200.38;5091640;27;45537;-76
2023/08/29 08:27:29;;;;;;;;;8.00;8.00;;;;;19.15;93.94;101190.66;5086583;27;46131;-76
2023/08/29 08:29:55;;;;;;;;;9.00;9.00;;;;;19.36;93.72;101193.53;5082526;27;45318;-76
2023/08/29 08:32:20;;;;;;;;;12.33;7.67;;;;;19.54;90.83;101185.91;5098782;27;45358;-76
2023/08/29 08:34:46;;;;;;;;;8.00;7.00;;;;;19.71;85.44;101188.13;5100602;27;45561;-76
2023/08/29 08:37:11;;;;;;;;;8.33;6.00;;;;;19.87;86.42;101199.34;5075240;27;48222;-76
2023/08/29 08:39:36;;;;;;;;;7.00;7.00;;;;;20.05;85.37;101208.63;5088612;27;45321;-76
2023/08/29 08:42:02;;;;;;;;;5.00;5.00;;;;;20.11;82.76;101193.84;5098112;27;45346;-76
2023/08/29 08:44:31;;;;;;;;;5.67;5.67;;;;;20.05;82.66;101180.91;5098576;27;45675;-76
2023/08/29 08:46:57;;;;;;;;;6.00;6.00;;;;;20.34;83.00;101192.00;5084730;27;45552;-76
2023/08/29 08:49:22;;;;;;;;;6.00;6.00;;;;;20.50;82.20;101196.00;5098579;27;45222;-76
2023/08/29 08:51:48;;;;;;;;;5.00;5.00;;;;;20.58;80.54;101198.06;5094868;27;45221;-76
2023/08/29 08:54:14;;;;;;;;;5.00;5.00;;;;;20.84;82.95;101195.91;5080237;27;45597;-76
2023/08/29 08:56:40;;;;;;;;;5.00;4.33;;;;;21.05;79.01;101189.56;5086749;27;46311;-76
2023/08/29 08:59:06;;;;;;;;;4.33;4.33;;;;;21.12;78.57;101168.41;5092580;27;45387;-76
2023/08/29 09:01:31;;;;;;;;;4.00;4.00;;;;;21.15;76.13;101179.75;5079044;28;45350;-76
2023/08/29 09:03:56;;;;;;;;;3.00;1.67;;;;;21.08;74.46;101183.06;5084591;27;45273;-76
2023/08/29 09:06:22;;;;;;;;;6.00;2.33;;;;;21.10;76.17;101190.06;5083454;27;45446;-76
2023/08/29 09:08:47;;;;;;;;;5.00;3.00;;;;;21.06;74.42;101191.28;5092466;27;45318;-76
2023/08/29 09:11:17;;;;;;;;;2.00;2.00;;;;;20.73;74.04;101157.31;5097690;27;45382;-76
2023/08/29 09:13:46;;;;;;;;;3.33;2.00;;;;;20.72;73.47;101166.34;5091306;27;45485;-76
2023/08/29 09:16:12;;;;;;;;;3.00;2.00;;;;;21.07;74.67;101194.81;5097079;27;46398;-76
2023/08/29 09:18:42;;;;;;;;;2.67;2.67;;;;;21.18;75.57;101167.88;5100218;27;45565;-76
2023/08/29 09:21:16;;;;;;;;;4.00;2.67;;;;;21.35;71.16;101167.28;5082965;27;45321;-76
2023/08/29 09:23:41;;;;;;;;;2.00;2.00;;;;;21.51;70.81;101158.72;5080496;27;45462;-76
2023/08/29 09:26:10;;;;;;;;;3.00;2.00;;;;;21.79;71.90;101179.56;5070643;27;47354;-76
2023/08/29 09:28:36;;;;;;;;;0.67;0.67;;;;;21.97;67.57;101183.34;5082718;27;45395;-76
2023/08/29 09:31:05;;;;;;;;;2.33;1.33;;;;;21.99;67.00;101181.34;5085603;27;45439;-76
2023/08/29 09:33:32;;;;;;;;;1.00;1.00;;;;;22.08;67.05;101191.34;5099791;27;45277;-76
2023/08/29 09:36:00;;;;;;;;;1.67;1.67;;;;;22.09;66.50;101198.41;5069814;27;47419;-76
2023/08/29 09:38:31;;;;;;;;;1.00;1.00;;;;;22.06;66.84;101195.13;5091535;27;45318;-76
2023/08/29 09:40:57;;;;;;;;;3.00;2.00;;;;;22.02;66.64;101164.91;5074947;28;45436;-76
2023/08/29 09:43:22;;;;;;;;;2.00;2.00;;;;;22.23;66.63;101189.09;5080384;27;45230;-76
2023/08/29 09:45:50;;;;;;;;;3.00;3.00;;;;;22.45;67.98;101194.25;5098813;27;45515;-76
2023/08/29 09:48:16;;;;;;;;;3.00;3.00;;;;;22.35;67.52;101144.03;5088706;27;45232;-76
2023/08/29 09:50:41;;;;;;;;;6.67;3.33;;;;;22.46;68.14;101144.75;5087468;27;45342;-76
2023/08/29 09:53:08;;;;;;;;;2.00;2.00;;;;;22.72;66.78;101174.75;5099650;27;45449;-76
2023/08/29 09:55:39;;;;;;;;;1.00;1.00;;;;;22.70;66.20;101187.53;5100068;27;45338;-76
2023/08/29 09:58:06;;;;;;;;;4.33;2.33;;;;;22.54;65.87;101181.81;5094891;27;45422;-76
2023/08/29 10:00:35;;;;;;;;;4.00;4.00;;;;;22.45;67.56;101170.00;5099795;27;45466;-76
2023/08/29 10:03:05;;;;;;;;;7.67;4.00;;;;;22.55;66.66;101156.53;5093462;27;45501;-76
2023/08/29 10:05:34;;;;;;;;;6.00;4.33;;;;;22.79;65.69;101174.03;5071205;27;47723;-75
2023/08/29 10:08:06;;;;;;;;;4.33;2.33;;;;;22.75;63.98;101147.50;5093811;27;45556;-73
2023/08/29 10:10:34;;;;;;;;;2.33;1.00;;;;;22.96;63.40;101153.59;5078933;27;45528;-76
2023/08/29 10:13:02;;;;;;;;;3.00;1.33;;;;;23.12;61.63;101163.81;5077748;27;45957;-75
2023/08/29 10:15:29;;;;;;;;;2.67;2.67;;;;;23.08;62.74;101149.75;5086219;27;46004;-76
2023/08/29 10:17:55;;;;;;;;;3.00;2.00;;;;;23.01;60.96;101147.75;5081022;27;45675;-75
2023/08/29 10:20:22;;;;;;;;;2.67;2.67;;;;;23.01;61.55;101159.41;5090999;27;45398;-76
2023/08/29 10:22:48;;;;;;;;;1.33;1.33;;;;;22.72;60.89;101129.75;5091162;27;45590;-75
2023/08/29 10:25:15;;;;;;;;;2.67;2.67;;;;;22.65;60.76;101158.25;5099145;27;45311;-75
2023/08/29 10:27:42;;;;;;;;;1.00;1.00;;;;;22.36;62.70;101151.97;5099169;27;45340;-76
2023/08/29 10:30:08;;;;;;;;;2.00;2.00;;;;;22.27;62.17;101148.28;5099274;27;45744;-75
2023/08/29 10:32:36;;;;;;;;;4.00;4.00;;;;;21.95;65.61;101128.78;5099383;27;45552;-75
2023/08/29 10:35:03;;;;;;;;;4.00;3.00;;;;;21.78;67.39;101141.00;5102201;27;45375;-75
2023/08/29 10:37:29;;;;;;;;;2.67;2.67;;;;;21.77;68.57;101163.53;5095781;27;45370;-75
2023/08/29 10:40:09;;;;;;;;;6.00;3.33;;;;;21.48;70.52;101140.16;5089885;27;45500;-75
2023/08/29 10:42:55;;;;;;;;;3.00;3.00;;;;;21.40;69.33;101156.13;5100202;27;45303;-75
2023/08/29 10:45:22;;;;;;;;;3.33;3.33;;;;;21.27;70.21;101164.38;5088865;27;45519;-75
2023/08/29 10:47:47;;;;;;;;;3.00;3.00;;;;;21.11;70.61;101158.63;5098286;27;45339;-75
2023/08/29 10:50:31;;;;;;;;;4.00;4.00;;;;;20.96;71.01;101163.44;5091235;27;45417;-75
2023/08/29 10:52:57;;;;;;;;;4.67;4.67;;;;;20.74;70.67;101118.69;5098823;27;45484;-75
2023/08/29 10:55:27;;;;;;;;;2.33;2.33;;;;;20.69;70.65;101126.28;5099010;27;46174;-75
2023/08/29 10:57:53;;;;;;;;;6.67;4.00;;;;;20.81;72.34;101153.97;5097122;27;45268;-76
2023/08/29 11:00:51;;;;;;;;;6.00;3.67;;;;;20.79;73.40;101150.56;5079075;27;45479;-75
2023/08/29 11:03:37;;;;;;;;;6.00;3.00;;;;;20.49;72.92;101104.75;5074571;28;45409;-75
2023/08/29 11:06:03;;;;;;;;;4.33;3.67;;;;;20.84;73.27;101155.56;5093602;27;45466;-75
2023/08/29 11:08:28;;;;;;;;;5.00;5.00;;;;;20.86;72.66;101153.59;5095183;27;45408;-75
2023/08/29 11:11:22;;;;;;;;;3.00;3.00;;;;;20.83;71.17;101145.78;5082389;27;45271;-75
2023/08/29 11:13:56;;;;;;;;;4.33;3.00;;;;;20.74;70.14;101132.13;5070065;28;45456;-75
2023/08/29 11:16:21;;;;;;;;;3.00;3.00;;;;;20.81;70.75;101137.00;5095172;27;45377;-75